Anderson, South Carolina
Current Conditions -  °F | °C
As of 1:37 PM on Sunday 23 Nov 2014 (Local Time) from KAND Reporting Station
Heavy Rain Heavy Rain  
Wind Chill: 41°   Ceiling: 500
Heat Index: 47°   Visibility: 2mi
Dew Point: 46°   Wind: 13mph
Humidity: 97%   Direction: 60°ENE
Pressure: 29.94"   Gusts: NA
Location:  34.5°N, 82.65°W
Report Text: KAND 231837Z AUTO 06011KT 2SM +RA BR OVC005 08/08 A2994 RMK AO2 CIG 004V008 P0005 T00830078
Loading
Personal Weather Stations






























Interactive Weather Map New forecast layout! Learn more

10-Day Weather Forecast

Advertisements
Track Severe Weather on mobile